sensor_id;sensor_type;location;lat;lon;timestamp;P1;durP1;ratioP1;P2;durP2;ratioP2
10339;SDS011;5215;48.676;9.022;2022-11-20T00:00:05;0.30;;;0.30;;
10339;SDS011;5215;48.676;9.022;2022-11-20T00:02:32;0.93;;;0.50;;
10339;SDS011;5215;48.676;9.022;2022-11-20T00:05:00;0.67;;;0.67;;
10339;SDS011;5215;48.676;9.022;2022-11-20T00:07:26;0.70;;;0.70;;
10339;SDS011;5215;48.676;9.022;2022-11-20T00:09:52;0.97;;;0.60;;
10339;SDS011;5215;48.676;9.022;2022-11-20T00:12:19;0.63;;;0.57;;
10339;SDS011;5215;48.676;9.022;2022-11-20T00:14:45;0.77;;;0.70;;
10339;SDS011;5215;48.676;9.022;2022-11-20T00:17:11;1.97;;;1.10;;
10339;SDS011;5215;48.676;9.022;2022-11-20T00:19:38;0.80;;;0.80;;
10339;SDS011;5215;48.676;9.022;2022-11-20T00:22:05;0.93;;;0.87;;
10339;SDS011;5215;48.676;9.022;2022-11-20T00:24:32;1.10;;;1.00;;
10339;SDS011;5215;48.676;9.022;2022-11-20T00:26:58;0.80;;;0.70;;
10339;SDS011;5215;48.676;9.022;2022-11-20T00:29:24;0.93;;;0.93;;
10339;SDS011;5215;48.676;9.022;2022-11-20T00:31:51;0.90;;;0.90;;
10339;SDS011;5215;48.676;9.022;2022-11-20T00:34:17;1.23;;;1.13;;
10339;SDS011;5215;48.676;9.022;2022-11-20T00:36:43;0.93;;;0.93;;
10339;SDS011;5215;48.676;9.022;2022-11-20T00:39:11;0.97;;;0.90;;
10339;SDS011;5215;48.676;9.022;2022-11-20T00:41:37;1.50;;;1.40;;
10339;SDS011;5215;48.676;9.022;2022-11-20T00:44:04;1.70;;;1.10;;
10339;SDS011;5215;48.676;9.022;2022-11-20T00:46:30;1.63;;;1.03;;
10339;SDS011;5215;48.676;9.022;2022-11-20T00:48:57;0.37;;;0.37;;
10339;SDS011;5215;48.676;9.022;2022-11-20T00:51:24;1.70;;;0.77;;
10339;SDS011;5215;48.676;9.022;2022-11-20T00:53:51;0.73;;;0.50;;
10339;SDS011;5215;48.676;9.022;2022-11-20T00:56:19;0.70;;;0.70;;
10339;SDS011;5215;48.676;9.022;2022-11-20T00:58:46;0.63;;;0.50;;
10339;SDS011;5215;48.676;9.022;2022-11-20T01:01:13;0.80;;;0.80;;
10339;SDS011;5215;48.676;9.022;2022-11-20T01:03:41;1.57;;;0.80;;
10339;SDS011;5215;48.676;9.022;2022-11-20T01:06:09;1.30;;;0.90;;
10339;SDS011;5215;48.676;9.022;2022-11-20T01:08:36;1.77;;;1.07;;
10339;SDS011;5215;48.676;9.022;2022-11-20T01:11:03;1.40;;;1.23;;
10339;SDS011;5215;48.676;9.022;2022-11-20T01:13:31;1.07;;;0.97;;
10339;SDS011;5215;48.676;9.022;2022-11-20T01:16:04;0.93;;;0.90;;
10339;SDS011;5215;48.676;9.022;2022-11-20T01:18:30;1.00;;;0.93;;
10339;SDS011;5215;48.676;9.022;2022-11-20T01:20:59;1.17;;;0.70;;
10339;SDS011;5215;48.676;9.022;2022-11-20T01:23:26;1.10;;;1.03;;
10339;SDS011;5215;48.676;9.022;2022-11-20T01:25:52;1.10;;;1.00;;
10339;SDS011;5215;48.676;9.022;2022-11-20T01:28:18;1.57;;;1.10;;
10339;SDS011;5215;48.676;9.022;2022-11-20T01:30:46;0.80;;;0.80;;
10339;SDS011;5215;48.676;9.022;2022-11-20T01:33:12;1.50;;;1.00;;
10339;SDS011;5215;48.676;9.022;2022-11-20T01:35:39;1.23;;;0.90;;
10339;SDS011;5215;48.676;9.022;2022-11-20T01:38:05;1.30;;;1.20;;
10339;SDS011;5215;48.676;9.022;2022-11-20T01:40:31;0.90;;;0.90;;
10339;SDS011;5215;48.676;9.022;2022-11-20T01:43:01;1.30;;;1.20;;
10339;SDS011;5215;48.676;9.022;2022-11-20T01:45:55;2.07;;;1.43;;
10339;SDS011;5215;48.676;9.022;2022-11-20T01:48:23;1.10;;;1.00;;
10339;SDS011;5215;48.676;9.022;2022-11-20T01:50:51;0.93;;;0.90;;
10339;SDS011;5215;48.676;9.022;2022-11-20T01:53:20;1.20;;;1.10;;
10339;SDS011;5215;48.676;9.022;2022-11-20T01:55:48;1.63;;;1.30;;
10339;SDS011;5215;48.676;9.022;2022-11-20T01:58:15;1.23;;;1.20;;
10339;SDS011;5215;48.676;9.022;2022-11-20T02:00:42;0.90;;;0.90;;
10339;SDS011;5215;48.676;9.022;2022-11-20T02:03:11;1.73;;;1.20;;
10339;SDS011;5215;48.676;9.022;2022-11-20T02:05:40;1.17;;;1.07;;
10339;SDS011;5215;48.676;9.022;2022-11-20T02:08:07;1.00;;;1.00;;
10339;SDS011;5215;48.676;9.022;2022-11-20T02:10:34;0.70;;;0.70;;
10339;SDS011;5215;48.676;9.022;2022-11-20T02:13:01;1.23;;;1.10;;
10339;SDS011;5215;48.676;9.022;2022-11-20T02:15:45;1.30;;;1.20;;
10339;SDS011;5215;48.676;9.022;2022-11-20T02:18:13;1.20;;;1.13;;
10339;SDS011;5215;48.676;9.022;2022-11-20T02:20:40;1.40;;;1.30;;
10339;SDS011;5215;48.676;9.022;2022-11-20T02:23:09;1.60;;;1.30;;
10339;SDS011;5215;48.676;9.022;2022-11-20T02:25:38;1.50;;;1.20;;
10339;SDS011;5215;48.676;9.022;2022-11-20T02:28:05;3.23;;;1.50;;
10339;SDS011;5215;48.676;9.022;2022-11-20T02:30:31;1.70;;;1.60;;
10339;SDS011;5215;48.676;9.022;2022-11-20T02:32:58;1.30;;;1.20;;
10339;SDS011;5215;48.676;9.022;2022-11-20T02:35:41;3.07;;;1.63;;
10339;SDS011;5215;48.676;9.022;2022-11-20T02:38:08;3.33;;;1.90;;
10339;SDS011;5215;48.676;9.022;2022-11-20T02:40:34;1.60;;;1.50;;
10339;SDS011;5215;48.676;9.022;2022-11-20T02:43:02;2.80;;;1.97;;
10339;SDS011;5215;48.676;9.022;2022-11-20T02:45:28;2.90;;;1.87;;
10339;SDS011;5215;48.676;9.022;2022-11-20T02:47:55;2.70;;;1.87;;
10339;SDS011;5215;48.676;9.022;2022-11-20T02:50:21;1.87;;;1.50;;
10339;SDS011;5215;48.676;9.022;2022-11-20T02:52:47;2.47;;;1.60;;
10339;SDS011;5215;48.676;9.022;2022-11-20T02:55:14;2.37;;;1.60;;
10339;SDS011;5215;48.676;9.022;2022-11-20T02:57:40;1.50;;;1.40;;
10339;SDS011;5215;48.676;9.022;2022-11-20T03:00:08;1.43;;;1.17;;
10339;SDS011;5215;48.676;9.022;2022-11-20T03:02:35;1.23;;;1.13;;
10339;SDS011;5215;48.676;9.022;2022-11-20T03:05:01;2.67;;;1.60;;
10339;SDS011;5215;48.676;9.022;2022-11-20T03:07:27;2.07;;;1.70;;
10339;SDS011;5215;48.676;9.022;2022-11-20T03:09:54;2.00;;;1.60;;
10339;SDS011;5215;48.676;9.022;2022-11-20T03:12:20;2.47;;;1.80;;
10339;SDS011;5215;48.676;9.022;2022-11-20T03:14:46;1.67;;;1.57;;
10339;SDS011;5215;48.676;9.022;2022-11-20T03:17:14;2.23;;;1.50;;
10339;SDS011;5215;48.676;9.022;2022-11-20T03:19:41;3.77;;;1.60;;
10339;SDS011;5215;48.676;9.022;2022-11-20T03:22:08;1.43;;;1.33;;
10339;SDS011;5215;48.676;9.022;2022-11-20T03:24:34;2.57;;;2.03;;
10339;SDS011;5215;48.676;9.022;2022-11-20T03:27:00;2.10;;;1.70;;
10339;SDS011;5215;48.676;9.022;2022-11-20T03:29:27;1.60;;;1.40;;
10339;SDS011;5215;48.676;9.022;2022-11-20T03:31:53;2.17;;;1.97;;
10339;SDS011;5215;48.676;9.022;2022-11-20T03:34:21;2.70;;;1.53;;
10339;SDS011;5215;48.676;9.022;2022-11-20T03:36:48;1.93;;;1.47;;
10339;SDS011;5215;48.676;9.022;2022-11-20T03:39:14;2.23;;;1.87;;
10339;SDS011;5215;48.676;9.022;2022-11-20T03:41:41;1.30;;;1.20;;
10339;SDS011;5215;48.676;9.022;2022-11-20T03:44:09;2.03;;;1.63;;
10339;SDS011;5215;48.676;9.022;2022-11-20T03:46:36;2.00;;;1.73;;
10339;SDS011;5215;48.676;9.022;2022-11-20T03:49:02;1.50;;;1.40;;
10339;SDS011;5215;48.676;9.022;2022-11-20T03:51:30;1.83;;;1.57;;
10339;SDS011;5215;48.676;9.022;2022-11-20T03:53:58;1.93;;;1.73;;
10339;SDS011;5215;48.676;9.022;2022-11-20T03:56:26;2.40;;;1.93;;
10339;SDS011;5215;48.676;9.022;2022-11-20T03:58:52;3.17;;;1.27;;
10339;SDS011;5215;48.676;9.022;2022-11-20T04:01:19;2.10;;;1.50;;
10339;SDS011;5215;48.676;9.022;2022-11-20T04:03:46;1.73;;;1.63;;
10339;SDS011;5215;48.676;9.022;2022-11-20T04:06:13;1.73;;;1.63;;
10339;SDS011;5215;48.676;9.022;2022-11-20T04:08:41;2.80;;;1.60;;
10339;SDS011;5215;48.676;9.022;2022-11-20T04:11:08;2.53;;;1.60;;
10339;SDS011;5215;48.676;9.022;2022-11-20T04:13:35;1.93;;;1.77;;
10339;SDS011;5215;48.676;9.022;2022-11-20T04:16:01;1.77;;;1.67;;
10339;SDS011;5215;48.676;9.022;2022-11-20T04:18:27;2.63;;;2.07;;
10339;SDS011;5215;48.676;9.022;2022-11-20T04:20:53;1.93;;;1.53;;
10339;SDS011;5215;48.676;9.022;2022-11-20T04:23:22;1.50;;;1.30;;
10339;SDS011;5215;48.676;9.022;2022-11-20T04:25:49;2.50;;;1.87;;
10339;SDS011;5215;48.676;9.022;2022-11-20T04:28:16;2.63;;;1.60;;
10339;SDS011;5215;48.676;9.022;2022-11-20T04:30:42;1.53;;;1.43;;
10339;SDS011;5215;48.676;9.022;2022-11-20T04:33:08;1.67;;;1.40;;
10339;SDS011;5215;48.676;9.022;2022-11-20T04:35:35;2.33;;;1.60;;
10339;SDS011;5215;48.676;9.022;2022-11-20T04:38:01;1.43;;;1.33;;
10339;SDS011;5215;48.676;9.022;2022-11-20T04:40:28;2.53;;;1.33;;
10339;SDS011;5215;48.676;9.022;2022-11-20T04:42:56;1.60;;;1.40;;
10339;SDS011;5215;48.676;9.022;2022-11-20T04:45:22;1.37;;;1.27;;
10339;SDS011;5215;48.676;9.022;2022-11-20T04:47:49;2.37;;;1.23;;
10339;SDS011;5215;48.676;9.022;2022-11-20T04:50:15;2.70;;;1.27;;
10339;SDS011;5215;48.676;9.022;2022-11-20T04:52:41;2.17;;;1.53;;
10339;SDS011;5215;48.676;9.022;2022-11-20T04:55:08;1.20;;;1.20;;
10339;SDS011;5215;48.676;9.022;2022-11-20T04:57:34;2.13;;;1.70;;
10339;SDS011;5215;48.676;9.022;2022-11-20T05:00:02;1.67;;;1.57;;
10339;SDS011;5215;48.676;9.022;2022-11-20T05:02:30;1.40;;;1.20;;
10339;SDS011;5215;48.676;9.022;2022-11-20T05:04:56;1.53;;;1.23;;
10339;SDS011;5215;48.676;9.022;2022-11-20T05:07:23;1.57;;;1.10;;
10339;SDS011;5215;48.676;9.022;2022-11-20T05:09:49;1.87;;;1.70;;
10339;SDS011;5215;48.676;9.022;2022-11-20T05:12:15;1.70;;;1.13;;
10339;SDS011;5215;48.676;9.022;2022-11-20T05:14:41;0.90;;;0.90;;
10339;SDS011;5215;48.676;9.022;2022-11-20T05:17:11;1.43;;;1.33;;
10339;SDS011;5215;48.676;9.022;2022-11-20T05:19:37;1.20;;;1.10;;
10339;SDS011;5215;48.676;9.022;2022-11-20T05:22:04;1.20;;;1.10;;
10339;SDS011;5215;48.676;9.022;2022-11-20T05:24:30;1.10;;;1.03;;
10339;SDS011;5215;48.676;9.022;2022-11-20T05:26:56;1.90;;;1.40;;
10339;SDS011;5215;48.676;9.022;2022-11-20T05:29:23;2.30;;;1.57;;
10339;SDS011;5215;48.676;9.022;2022-11-20T05:31:49;1.37;;;1.27;;
10339;SDS011;5215;48.676;9.022;2022-11-20T05:34:17;3.87;;;1.30;;
10339;SDS011;5215;48.676;9.022;2022-11-20T05:36:43;1.73;;;1.33;;
10339;SDS011;5215;48.676;9.022;2022-11-20T05:39:09;1.20;;;1.10;;
10339;SDS011;5215;48.676;9.022;2022-11-20T05:41:36;1.27;;;1.00;;
10339;SDS011;5215;48.676;9.022;2022-11-20T05:44:02;1.17;;;1.07;;
10339;SDS011;5215;48.676;9.022;2022-11-20T05:46:28;1.57;;;1.37;;
10339;SDS011;5215;48.676;9.022;2022-11-20T05:48:55;1.27;;;1.17;;
10339;SDS011;5215;48.676;9.022;2022-11-20T05:51:23;2.47;;;1.30;;
10339;SDS011;5215;48.676;9.022;2022-11-20T05:53:50;1.40;;;1.30;;
10339;SDS011;5215;48.676;9.022;2022-11-20T05:56:16;1.73;;;1.30;;
10339;SDS011;5215;48.676;9.022;2022-11-20T05:58:43;1.47;;;1.07;;
10339;SDS011;5215;48.676;9.022;2022-11-20T06:01:10;1.20;;;1.10;;
10339;SDS011;5215;48.676;9.022;2022-11-20T06:03:37;1.27;;;1.17;;
10339;SDS011;5215;48.676;9.022;2022-11-20T06:06:04;1.40;;;1.30;;
10339;SDS011;5215;48.676;9.022;2022-11-20T06:08:32;1.10;;;1.10;;
10339;SDS011;5215;48.676;9.022;2022-11-20T06:11:02;1.90;;;1.33;;
10339;SDS011;5215;48.676;9.022;2022-11-20T06:13:29;1.40;;;1.27;;
10339;SDS011;5215;48.676;9.022;2022-11-20T06:15:55;1.33;;;1.23;;
10339;SDS011;5215;48.676;9.022;2022-11-20T06:18:21;1.97;;;1.30;;
10339;SDS011;5215;48.676;9.022;2022-11-20T06:20:48;3.03;;;1.07;;
10339;SDS011;5215;48.676;9.022;2022-11-20T06:23:14;3.33;;;1.07;;
10339;SDS011;5215;48.676;9.022;2022-11-20T06:25:42;2.03;;;1.30;;
10339;SDS011;5215;48.676;9.022;2022-11-20T06:28:08;2.30;;;1.33;;
10339;SDS011;5215;48.676;9.022;2022-11-20T06:30:35;1.27;;;1.10;;
10339;SDS011;5215;48.676;9.022;2022-11-20T06:33:01;1.33;;;1.23;;
10339;SDS011;5215;48.676;9.022;2022-11-20T06:35:28;2.00;;;1.17;;
10339;SDS011;5215;48.676;9.022;2022-11-20T06:37:55;1.27;;;1.13;;
10339;SDS011;5215;48.676;9.022;2022-11-20T06:40:21;1.57;;;1.20;;
10339;SDS011;5215;48.676;9.022;2022-11-20T06:42:49;1.70;;;1.13;;
10339;SDS011;5215;48.676;9.022;2022-11-20T06:45:15;1.20;;;1.10;;
10339;SDS011;5215;48.676;9.022;2022-11-20T06:47:42;1.23;;;1.13;;
10339;SDS011;5215;48.676;9.022;2022-11-20T06:50:08;2.07;;;1.30;;
10339;SDS011;5215;48.676;9.022;2022-11-20T06:52:34;1.07;;;1.03;;
10339;SDS011;5215;48.676;9.022;2022-11-20T06:55:01;1.47;;;1.00;;
10339;SDS011;5215;48.676;9.022;2022-11-20T06:57:27;2.17;;;1.10;;
10339;SDS011;5215;48.676;9.022;2022-11-20T06:59:55;0.87;;;0.87;;
10339;SDS011;5215;48.676;9.022;2022-11-20T07:02:21;1.10;;;1.00;;
10339;SDS011;5215;48.676;9.022;2022-11-20T07:04:47;0.90;;;0.90;;
10339;SDS011;5215;48.676;9.022;2022-11-20T07:07:14;1.10;;;1.00;;
10339;SDS011;5215;48.676;9.022;2022-11-20T07:09:40;0.83;;;0.70;;
10339;SDS011;5215;48.676;9.022;2022-11-20T07:12:06;1.00;;;0.90;;
10339;SDS011;5215;48.676;9.022;2022-11-20T07:14:33;1.10;;;1.00;;
10339;SDS011;5215;48.676;9.022;2022-11-20T07:17:00;1.40;;;1.30;;
10339;SDS011;5215;48.676;9.022;2022-11-20T07:19:27;0.90;;;0.90;;
10339;SDS011;5215;48.676;9.022;2022-11-20T07:21:53;0.97;;;0.97;;
10339;SDS011;5215;48.676;9.022;2022-11-20T07:24:19;1.57;;;1.40;;
10339;SDS011;5215;48.676;9.022;2022-11-20T07:26:46;1.00;;;0.90;;
10339;SDS011;5215;48.676;9.022;2022-11-20T07:29:12;1.10;;;1.00;;
10339;SDS011;5215;48.676;9.022;2022-11-20T07:31:39;0.50;;;0.50;;
10339;SDS011;5215;48.676;9.022;2022-11-20T07:34:06;0.50;;;0.50;;
10339;SDS011;5215;48.676;9.022;2022-11-20T07:36:33;0.70;;;0.60;;
10339;SDS011;5215;48.676;9.022;2022-11-20T07:38:59;0.47;;;0.47;;
10339;SDS011;5215;48.676;9.022;2022-11-20T07:41:25;0.50;;;0.50;;
10339;SDS011;5215;48.676;9.022;2022-11-20T07:43:52;0.20;;;0.20;;
10339;SDS011;5215;48.676;9.022;2022-11-20T07:46:18;0.60;;;0.60;;
10339;SDS011;5215;48.676;9.022;2022-11-20T07:48:45;0.50;;;0.43;;
10339;SDS011;5215;48.676;9.022;2022-11-20T07:51:13;0.40;;;0.40;;
10339;SDS011;5215;48.676;9.022;2022-11-20T07:53:39;0.47;;;0.47;;
10339;SDS011;5215;48.676;9.022;2022-11-20T07:56:06;1.20;;;1.03;;
10339;SDS011;5215;48.676;9.022;2022-11-20T07:58:32;0.37;;;0.37;;
10339;SDS011;5215;48.676;9.022;2022-11-20T08:01:02;0.57;;;0.57;;
10339;SDS011;5215;48.676;9.022;2022-11-20T08:03:28;0.30;;;0.30;;
10339;SDS011;5215;48.676;9.022;2022-11-20T08:05:56;1.07;;;0.27;;
10339;SDS011;5215;48.676;9.022;2022-11-20T08:08:25;0.57;;;0.57;;
10339;SDS011;5215;48.676;9.022;2022-11-20T08:10:51;0.20;;;0.20;;
10339;SDS011;5215;48.676;9.022;2022-11-20T08:13:38;2.90;;;0.73;;
10339;SDS011;5215;48.676;9.022;2022-11-20T08:16:22;0.67;;;0.63;;
10339;SDS011;5215;48.676;9.022;2022-11-20T08:18:48;0.40;;;0.40;;
10339;SDS011;5215;48.676;9.022;2022-11-20T08:21:15;0.30;;;0.30;;
10339;SDS011;5215;48.676;9.022;2022-11-20T08:23:43;0.40;;;0.40;;
10339;SDS011;5215;48.676;9.022;2022-11-20T08:26:09;0.50;;;0.50;;
10339;SDS011;5215;48.676;9.022;2022-11-20T08:28:35;0.53;;;0.47;;
10339;SDS011;5215;48.676;9.022;2022-11-20T08:31:02;0.20;;;0.20;;
10339;SDS011;5215;48.676;9.022;2022-11-20T08:33:29;0.10;;;0.10;;
10339;SDS011;5215;48.676;9.022;2022-11-20T08:35:58;1.23;;;0.67;;
10339;SDS011;5215;48.676;9.022;2022-11-20T08:38:24;0.13;;;0.13;;
10339;SDS011;5215;48.676;9.022;2022-11-20T08:40:52;0.30;;;0.30;;
10339;SDS011;5215;48.676;9.022;2022-11-20T08:43:36;0.40;;;0.40;;
10339;SDS011;5215;48.676;9.022;2022-11-20T08:46:02;0.30;;;0.30;;
10339;SDS011;5215;48.676;9.022;2022-11-20T08:48:28;0.40;;;0.40;;
10339;SDS011;5215;48.676;9.022;2022-11-20T08:50:57;0.20;;;0.20;;
10339;SDS011;5215;48.676;9.022;2022-11-20T08:53:23;0.10;;;0.10;;
10339;SDS011;5215;48.676;9.022;2022-11-20T08:55:49;0.50;;;0.30;;
10339;SDS011;5215;48.676;9.022;2022-11-20T08:58:17;0.30;;;0.30;;
10339;SDS011;5215;48.676;9.022;2022-11-20T09:00:43;0.27;;;0.27;;
10339;SDS011;5215;48.676;9.022;2022-11-20T09:03:10;0.40;;;0.40;;
10339;SDS011;5215;48.676;9.022;2022-11-20T09:05:38;0.40;;;0.40;;
10339;SDS011;5215;48.676;9.022;2022-11-20T09:08:04;0.00;;;0.00;;
10339;SDS011;5215;48.676;9.022;2022-11-20T09:10:31;0.83;;;0.60;;
10339;SDS011;5215;48.676;9.022;2022-11-20T09:12:57;0.20;;;0.20;;
10339;SDS011;5215;48.676;9.022;2022-11-20T09:15:25;0.20;;;0.20;;
10339;SDS011;5215;48.676;9.022;2022-11-20T09:17:52;0.50;;;0.37;;
10339;SDS011;5215;48.676;9.022;2022-11-20T09:20:18;2.83;;;0.37;;
10339;SDS011;5215;48.676;9.022;2022-11-20T09:22:44;0.20;;;0.20;;
10339;SDS011;5215;48.676;9.022;2022-11-20T09:25:11;0.00;;;0.00;;
10339;SDS011;5215;48.676;9.022;2022-11-20T09:27:37;0.10;;;0.10;;
10339;SDS011;5215;48.676;9.022;2022-11-20T09:30:04;0.20;;;0.20;;
10339;SDS011;5215;48.676;9.022;2022-11-20T09:32:32;0.10;;;0.10;;
10339;SDS011;5215;48.676;9.022;2022-11-20T09:34:58;0.13;;;0.13;;
10339;SDS011;5215;48.676;9.022;2022-11-20T09:37:25;0.30;;;0.30;;
10339;SDS011;5215;48.676;9.022;2022-11-20T09:39:51;0.30;;;0.30;;
10339;SDS011;5215;48.676;9.022;2022-11-20T09:42:22;0.10;;;0.10;;
10339;SDS011;5215;48.676;9.022;2022-11-20T09:44:55;0.13;;;0.13;;
10339;SDS011;5215;48.676;9.022;2022-11-20T09:47:26;0.20;;;0.20;;
10339;SDS011;5215;48.676;9.022;2022-11-20T09:50:01;0.10;;;0.10;;
10339;SDS011;5215;48.676;9.022;2022-11-20T09:52:32;0.33;;;0.20;;
10339;SDS011;5215;48.676;9.022;2022-11-20T09:55:02;0.20;;;0.20;;
10339;SDS011;5215;48.676;9.022;2022-11-20T09:57:32;0.10;;;0.10;;
10339;SDS011;5215;48.676;9.022;2022-11-20T10:00:00;0.27;;;0.27;;
10339;SDS011;5215;48.676;9.022;2022-11-20T10:02:30;0.20;;;0.20;;
10339;SDS011;5215;48.676;9.022;2022-11-20T10:05:04;0.10;;;0.10;;
10339;SDS011;5215;48.676;9.022;2022-11-20T10:07:32;0.20;;;0.20;;
10339;SDS011;5215;48.676;9.022;2022-11-20T10:10:00;0.20;;;0.20;;
10339;SDS011;5215;48.676;9.022;2022-11-20T10:12:30;0.10;;;0.10;;
10339;SDS011;5215;48.676;9.022;2022-11-20T10:15:01;0.40;;;0.20;;
10339;SDS011;5215;48.676;9.022;2022-11-20T10:17:34;0.40;;;0.40;;
10339;SDS011;5215;48.676;9.022;2022-11-20T10:20:14;0.10;;;0.10;;
10339;SDS011;5215;48.676;9.022;2022-11-20T10:22:45;0.37;;;0.37;;
10339;SDS011;5215;48.676;9.022;2022-11-20T10:25:17;0.10;;;0.10;;
10339;SDS011;5215;48.676;9.022;2022-11-20T10:27:51;0.40;;;0.20;;
10339;SDS011;5215;48.676;9.022;2022-11-20T10:30:20;0.40;;;0.40;;
10339;SDS011;5215;48.676;9.022;2022-11-20T10:32:50;0.20;;;0.20;;
10339;SDS011;5215;48.676;9.022;2022-11-20T10:35:20;0.20;;;0.20;;
10339;SDS011;5215;48.676;9.022;2022-11-20T10:37:49;0.10;;;0.10;;
10339;SDS011;5215;48.676;9.022;2022-11-20T10:40:21;0.13;;;0.13;;
10339;SDS011;5215;48.676;9.022;2022-11-20T10:42:49;0.27;;;0.27;;
10339;SDS011;5215;48.676;9.022;2022-11-20T10:45:19;0.10;;;0.10;;
10339;SDS011;5215;48.676;9.022;2022-11-20T10:47:47;0.20;;;0.20;;
10339;SDS011;5215;48.676;9.022;2022-11-20T10:50:16;1.73;;;0.73;;
10339;SDS011;5215;48.676;9.022;2022-11-20T10:52:47;0.20;;;0.20;;
10339;SDS011;5215;48.676;9.022;2022-11-20T10:55:22;0.27;;;0.27;;
10339;SDS011;5215;48.676;9.022;2022-11-20T10:57:52;0.47;;;0.47;;
10339;SDS011;5215;48.676;9.022;2022-11-20T11:00:19;2.93;;;2.37;;
10339;SDS011;5215;48.676;9.022;2022-11-20T11:02:47;1.40;;;1.30;;
10339;SDS011;5215;48.676;9.022;2022-11-20T11:05:17;1.70;;;1.60;;
10339;SDS011;5215;48.676;9.022;2022-11-20T11:07:45;0.20;;;0.20;;
10339;SDS011;5215;48.676;9.022;2022-11-20T11:10:15;0.60;;;0.60;;
10339;SDS011;5215;48.676;9.022;2022-11-20T11:12:43;0.17;;;0.17;;
10339;SDS011;5215;48.676;9.022;2022-11-20T11:15:11;0.13;;;0.13;;
10339;SDS011;5215;48.676;9.022;2022-11-20T11:17:45;0.30;;;0.30;;
10339;SDS011;5215;48.676;9.022;2022-11-20T11:20:14;1.40;;;1.30;;
10339;SDS011;5215;48.676;9.022;2022-11-20T11:22:42;0.37;;;0.37;;
10339;SDS011;5215;48.676;9.022;2022-11-20T11:25:13;1.47;;;0.93;;
10339;SDS011;5215;48.676;9.022;2022-11-20T11:27:45;0.20;;;0.20;;
10339;SDS011;5215;48.676;9.022;2022-11-20T11:30:12;0.60;;;0.37;;
10339;SDS011;5215;48.676;9.022;2022-11-20T11:32:39;0.30;;;0.30;;
10339;SDS011;5215;48.676;9.022;2022-11-20T11:35:06;0.33;;;0.33;;
10339;SDS011;5215;48.676;9.022;2022-11-20T11:37:38;0.87;;;0.87;;
10339;SDS011;5215;48.676;9.022;2022-11-20T11:40:05;0.68;;;0.68;;
10339;SDS011;5215;48.676;9.022;2022-11-20T11:42:34;2.05;;;0.88;;
10339;SDS011;5215;48.676;9.022;2022-11-20T11:45:00;0.30;;;0.30;;
10339;SDS011;5215;48.676;9.022;2022-11-20T11:47:32;0.10;;;0.10;;
10339;SDS011;5215;48.676;9.022;2022-11-20T11:50:02;0.45;;;0.32;;
10339;SDS011;5215;48.676;9.022;2022-11-20T11:52:42;0.30;;;0.30;;
10339;SDS011;5215;48.676;9.022;2022-11-20T11:55:09;0.75;;;0.40;;
10339;SDS011;5215;48.676;9.022;2022-11-20T11:57:40;0.28;;;0.28;;
10339;SDS011;5215;48.676;9.022;2022-11-20T12:00:10;0.25;;;0.25;;
10339;SDS011;5215;48.676;9.022;2022-11-20T12:02:39;0.20;;;0.10;;
10339;SDS011;5215;48.676;9.022;2022-11-20T12:05:14;0.70;;;0.70;;
10339;SDS011;5215;48.676;9.022;2022-11-20T12:07:43;0.47;;;0.30;;
10339;SDS011;5215;48.676;9.022;2022-11-20T12:10:14;0.57;;;0.57;;
10339;SDS011;5215;48.676;9.022;2022-11-20T12:12:44;0.10;;;0.10;;
10339;SDS011;5215;48.676;9.022;2022-11-20T12:15:13;0.30;;;0.30;;
10339;SDS011;5215;48.676;9.022;2022-11-20T12:17:42;1.88;;;0.60;;
10339;SDS011;5215;48.676;9.022;2022-11-20T12:20:11;0.50;;;0.50;;
10339;SDS011;5215;48.676;9.022;2022-11-20T12:22:40;0.40;;;0.40;;
10339;SDS011;5215;48.676;9.022;2022-11-20T12:25:08;0.40;;;0.40;;
10339;SDS011;5215;48.676;9.022;2022-11-20T12:27:54;0.50;;;0.50;;
10339;SDS011;5215;48.676;9.022;2022-11-20T12:30:24;0.38;;;0.38;;
10339;SDS011;5215;48.676;9.022;2022-11-20T12:32:55;0.30;;;0.30;;
10339;SDS011;5215;48.676;9.022;2022-11-20T12:35:29;0.43;;;0.43;;
10339;SDS011;5215;48.676;9.022;2022-11-20T12:38:01;1.13;;;0.68;;
10339;SDS011;5215;48.676;9.022;2022-11-20T12:40:35;0.70;;;0.70;;
10339;SDS011;5215;48.676;9.022;2022-11-20T12:43:10;0.52;;;0.52;;
10339;SDS011;5215;48.676;9.022;2022-11-20T12:46:02;0.15;;;0.15;;
10339;SDS011;5215;48.676;9.022;2022-11-20T12:48:48;0.10;;;0.10;;
10339;SDS011;5215;48.676;9.022;2022-11-20T12:51:21;0.20;;;0.20;;
10339;SDS011;5215;48.676;9.022;2022-11-20T12:53:55;0.43;;;0.43;;
10339;SDS011;5215;48.676;9.022;2022-11-20T12:56:25;0.40;;;0.40;;
10339;SDS011;5215;48.676;9.022;2022-11-20T12:58:57;0.30;;;0.30;;
10339;SDS011;5215;48.676;9.022;2022-11-20T13:01:29;0.40;;;0.40;;
10339;SDS011;5215;48.676;9.022;2022-11-20T13:04:07;0.20;;;0.20;;
10339;SDS011;5215;48.676;9.022;2022-11-20T13:06:34;0.22;;;0.22;;
10339;SDS011;5215;48.676;9.022;2022-11-20T13:09:01;1.00;;;0.30;;
10339;SDS011;5215;48.676;9.022;2022-11-20T13:11:31;0.17;;;0.17;;
10339;SDS011;5215;48.676;9.022;2022-11-20T13:14:09;0.00;;;0.00;;
10339;SDS011;5215;48.676;9.022;2022-11-20T13:16:38;2.70;;;1.50;;
10339;SDS011;5215;48.676;9.022;2022-11-20T13:19:09;0.70;;;0.60;;
10339;SDS011;5215;48.676;9.022;2022-11-20T13:21:38;0.47;;;0.47;;
10339;SDS011;5215;48.676;9.022;2022-11-20T13:24:04;5.00;;;0.50;;
10339;SDS011;5215;48.676;9.022;2022-11-20T13:26:31;0.20;;;0.20;;
10339;SDS011;5215;48.676;9.022;2022-11-20T13:29:02;0.20;;;0.20;;
10339;SDS011;5215;48.676;9.022;2022-11-20T13:31:43;0.60;;;0.43;;
10339;SDS011;5215;48.676;9.022;2022-11-20T13:34:11;1.25;;;0.40;;
10339;SDS011;5215;48.676;9.022;2022-11-20T13:36:48;0.10;;;0.10;;
10339;SDS011;5215;48.676;9.022;2022-11-20T13:39:23;0.10;;;0.10;;
10339;SDS011;5215;48.676;9.022;2022-11-20T13:41:53;0.30;;;0.30;;
10339;SDS011;5215;48.676;9.022;2022-11-20T13:44:23;0.20;;;0.20;;
10339;SDS011;5215;48.676;9.022;2022-11-20T13:46:51;0.28;;;0.20;;
10339;SDS011;5215;48.676;9.022;2022-11-20T13:49:26;0.10;;;0.10;;
10339;SDS011;5215;48.676;9.022;2022-11-20T13:51:55;1.77;;;0.55;;
10339;SDS011;5215;48.676;9.022;2022-11-20T13:54:37;0.10;;;0.10;;
10339;SDS011;5215;48.676;9.022;2022-11-20T13:57:13;0.30;;;0.30;;
10339;SDS011;5215;48.676;9.022;2022-11-20T13:59:47;0.10;;;0.10;;
10339;SDS011;5215;48.676;9.022;2022-11-20T14:02:18;0.17;;;0.17;;
10339;SDS011;5215;48.676;9.022;2022-11-20T14:04:46;0.20;;;0.20;;
10339;SDS011;5215;48.676;9.022;2022-11-20T14:07:13;0.15;;;0.15;;
10339;SDS011;5215;48.676;9.022;2022-11-20T14:09:48;0.20;;;0.20;;
10339;SDS011;5215;48.676;9.022;2022-11-20T14:12:15;0.30;;;0.30;;
10339;SDS011;5215;48.676;9.022;2022-11-20T14:14:47;0.10;;;0.10;;
10339;SDS011;5215;48.676;9.022;2022-11-20T14:17:17;0.10;;;0.10;;
10339;SDS011;5215;48.676;9.022;2022-11-20T14:19:44;1.55;;;0.65;;
10339;SDS011;5215;48.676;9.022;2022-11-20T14:22:16;0.17;;;0.17;;
10339;SDS011;5215;48.676;9.022;2022-11-20T14:24:43;1.25;;;0.52;;
10339;SDS011;5215;48.676;9.022;2022-11-20T14:27:11;3.28;;;1.73;;
10339;SDS011;5215;48.676;9.022;2022-11-20T14:29:38;2.60;;;1.73;;
10339;SDS011;5215;48.676;9.022;2022-11-20T14:32:05;2.50;;;2.30;;
10339;SDS011;5215;48.676;9.022;2022-11-20T14:34:35;0.52;;;0.47;;
10339;SDS011;5215;48.676;9.022;2022-11-20T14:37:04;0.68;;;0.65;;
10339;SDS011;5215;48.676;9.022;2022-11-20T14:39:32;0.50;;;0.50;;
10339;SDS011;5215;48.676;9.022;2022-11-20T14:41:59;0.63;;;0.63;;
10339;SDS011;5215;48.676;9.022;2022-11-20T14:44:26;0.20;;;0.20;;
10339;SDS011;5215;48.676;9.022;2022-11-20T14:46:53;1.27;;;1.00;;
10339;SDS011;5215;48.676;9.022;2022-11-20T14:49:21;0.83;;;0.83;;
10339;SDS011;5215;48.676;9.022;2022-11-20T14:51:57;0.87;;;0.87;;
10339;SDS011;5215;48.676;9.022;2022-11-20T14:54:24;0.70;;;0.70;;
10339;SDS011;5215;48.676;9.022;2022-11-20T14:56:54;0.68;;;0.68;;
10339;SDS011;5215;48.676;9.022;2022-11-20T14:59:22;0.20;;;0.20;;
10339;SDS011;5215;48.676;9.022;2022-11-20T15:01:53;1.17;;;1.17;;
10339;SDS011;5215;48.676;9.022;2022-11-20T15:04:20;0.87;;;0.87;;
10339;SDS011;5215;48.676;9.022;2022-11-20T15:06:50;0.90;;;0.90;;